sensor_id;sensor_type;location;lat;lon;timestamp;P1;durP1;ratioP1;P2;durP2;ratioP2
41903;SDS011;27586;51.124;4.182;2023-07-22T00:01:18;9.50;;;8.55;;
41903;SDS011;27586;51.124;4.182;2023-07-22T00:03:43;11.73;;;8.70;;
41903;SDS011;27586;51.124;4.182;2023-07-22T00:06:09;12.52;;;9.45;;
41903;SDS011;27586;51.124;4.182;2023-07-22T00:08:35;9.93;;;8.38;;
41903;SDS011;27586;51.124;4.182;2023-07-22T00:11:03;11.27;;;8.57;;
41903;SDS011;27586;51.124;4.182;2023-07-22T00:13:29;9.15;;;8.25;;
41903;SDS011;27586;51.124;4.182;2023-07-22T00:15:55;10.05;;;8.88;;
41903;SDS011;27586;51.124;4.182;2023-07-22T00:18:22;10.15;;;8.57;;
41903;SDS011;27586;51.124;4.182;2023-07-22T00:20:48;9.55;;;8.48;;
41903;SDS011;27586;51.124;4.182;2023-07-22T00:23:15;9.95;;;8.15;;
41903;SDS011;27586;51.124;4.182;2023-07-22T00:25:41;9.80;;;8.75;;
41903;SDS011;27586;51.124;4.182;2023-07-22T00:28:07;11.73;;;9.48;;
41903;SDS011;27586;51.124;4.182;2023-07-22T00:30:32;9.27;;;8.38;;
41903;SDS011;27586;51.124;4.182;2023-07-22T00:32:59;10.05;;;8.43;;
41903;SDS011;27586;51.124;4.182;2023-07-22T00:35:25;11.65;;;8.57;;
41903;SDS011;27586;51.124;4.182;2023-07-22T00:37:51;11.32;;;8.60;;
41903;SDS011;27586;51.124;4.182;2023-07-22T00:40:17;9.32;;;8.25;;
41903;SDS011;27586;51.124;4.182;2023-07-22T00:42:43;10.68;;;8.93;;
41903;SDS011;27586;51.124;4.182;2023-07-22T00:45:08;10.15;;;8.55;;
41903;SDS011;27586;51.124;4.182;2023-07-22T00:47:34;9.38;;;8.48;;
41903;SDS011;27586;51.124;4.182;2023-07-22T00:50:04;9.38;;;8.40;;
41903;SDS011;27586;51.124;4.182;2023-07-22T00:52:32;9.80;;;8.65;;
41903;SDS011;27586;51.124;4.182;2023-07-22T00:55:02;9.55;;;8.55;;
41903;SDS011;27586;51.124;4.182;2023-07-22T00:57:30;11.07;;;9.73;;
41903;SDS011;27586;51.124;4.182;2023-07-22T00:59:55;12.07;;;8.77;;
41903;SDS011;27586;51.124;4.182;2023-07-22T01:02:21;10.35;;;9.23;;
41903;SDS011;27586;51.124;4.182;2023-07-22T01:04:48;9.88;;;8.85;;
41903;SDS011;27586;51.124;4.182;2023-07-22T01:07:15;11.40;;;9.05;;
41903;SDS011;27586;51.124;4.182;2023-07-22T01:09:41;10.73;;;8.88;;
41903;SDS011;27586;51.124;4.182;2023-07-22T01:12:08;10.38;;;9.18;;
41903;SDS011;27586;51.124;4.182;2023-07-22T01:14:37;12.68;;;9.25;;
41903;SDS011;27586;51.124;4.182;2023-07-22T01:17:05;12.35;;;9.15;;
41903;SDS011;27586;51.124;4.182;2023-07-22T01:19:32;12.77;;;9.82;;
41903;SDS011;27586;51.124;4.182;2023-07-22T01:21:59;11.35;;;9.07;;
41903;SDS011;27586;51.124;4.182;2023-07-22T01:24:27;11.27;;;9.60;;
41903;SDS011;27586;51.124;4.182;2023-07-22T01:26:55;10.30;;;9.05;;
41903;SDS011;27586;51.124;4.182;2023-07-22T01:29:22;12.35;;;8.82;;
41903;SDS011;27586;51.124;4.182;2023-07-22T01:31:50;9.95;;;9.00;;
41903;SDS011;27586;51.124;4.182;2023-07-22T01:34:16;11.52;;;9.43;;
41903;SDS011;27586;51.124;4.182;2023-07-22T01:36:42;10.20;;;9.15;;
41903;SDS011;27586;51.124;4.182;2023-07-22T01:39:09;11.63;;;9.07;;
41903;SDS011;27586;51.124;4.182;2023-07-22T01:41:36;10.18;;;9.18;;
41903;SDS011;27586;51.124;4.182;2023-07-22T01:44:02;10.25;;;8.80;;
41903;SDS011;27586;51.124;4.182;2023-07-22T01:46:28;12.75;;;9.52;;
41903;SDS011;27586;51.124;4.182;2023-07-22T01:48:55;10.77;;;9.68;;
41903;SDS011;27586;51.124;4.182;2023-07-22T01:51:21;11.95;;;9.95;;
41903;SDS011;27586;51.124;4.182;2023-07-22T01:53:46;10.57;;;9.48;;
41903;SDS011;27586;51.124;4.182;2023-07-22T01:56:12;13.70;;;9.95;;
41903;SDS011;27586;51.124;4.182;2023-07-22T01:58:38;11.48;;;9.50;;
41903;SDS011;27586;51.124;4.182;2023-07-22T02:01:04;12.35;;;9.32;;
41903;SDS011;27586;51.124;4.182;2023-07-22T02:03:30;11.68;;;9.73;;
41903;SDS011;27586;51.124;4.182;2023-07-22T02:06:05;14.00;;;10.05;;
41903;SDS011;27586;51.124;4.182;2023-07-22T02:08:31;12.88;;;9.80;;
41903;SDS011;27586;51.124;4.182;2023-07-22T02:11:04;13.57;;;9.85;;
41903;SDS011;27586;51.124;4.182;2023-07-22T02:13:34;13.48;;;9.73;;
41903;SDS011;27586;51.124;4.182;2023-07-22T02:16:00;11.18;;;9.95;;
41903;SDS011;27586;51.124;4.182;2023-07-22T02:18:27;11.93;;;10.43;;
41903;SDS011;27586;51.124;4.182;2023-07-22T02:20:53;12.15;;;9.95;;
41903;SDS011;27586;51.124;4.182;2023-07-22T02:23:20;13.45;;;10.15;;
41903;SDS011;27586;51.124;4.182;2023-07-22T02:25:55;11.38;;;9.98;;
41903;SDS011;27586;51.124;4.182;2023-07-22T02:28:21;14.82;;;9.25;;
41903;SDS011;27586;51.124;4.182;2023-07-22T02:30:48;11.80;;;9.23;;
41903;SDS011;27586;51.124;4.182;2023-07-22T02:33:17;13.88;;;10.55;;
41903;SDS011;27586;51.124;4.182;2023-07-22T02:35:43;13.18;;;10.35;;
41903;SDS011;27586;51.124;4.182;2023-07-22T02:38:08;13.90;;;9.82;;
41903;SDS011;27586;51.124;4.182;2023-07-22T02:40:35;13.68;;;10.52;;
41903;SDS011;27586;51.124;4.182;2023-07-22T02:43:01;13.18;;;9.93;;
41903;SDS011;27586;51.124;4.182;2023-07-22T02:45:26;13.82;;;10.13;;
41903;SDS011;27586;51.124;4.182;2023-07-22T02:47:52;13.75;;;10.82;;
41903;SDS011;27586;51.124;4.182;2023-07-22T02:50:18;13.63;;;10.77;;
41903;SDS011;27586;51.124;4.182;2023-07-22T02:52:44;12.80;;;10.18;;
41903;SDS011;27586;51.124;4.182;2023-07-22T02:55:11;13.10;;;10.27;;
41903;SDS011;27586;51.124;4.182;2023-07-22T02:57:43;15.82;;;10.65;;
41903;SDS011;27586;51.124;4.182;2023-07-22T03:00:11;12.40;;;9.55;;
41903;SDS011;27586;51.124;4.182;2023-07-22T03:02:38;13.43;;;10.63;;
41903;SDS011;27586;51.124;4.182;2023-07-22T03:05:04;10.85;;;9.70;;
41903;SDS011;27586;51.124;4.182;2023-07-22T03:07:42;12.25;;;9.63;;
41903;SDS011;27586;51.124;4.182;2023-07-22T03:10:08;12.70;;;10.02;;
41903;SDS011;27586;51.124;4.182;2023-07-22T03:12:34;13.15;;;9.88;;
41903;SDS011;27586;51.124;4.182;2023-07-22T03:15:01;16.73;;;10.82;;
41903;SDS011;27586;51.124;4.182;2023-07-22T03:17:29;11.85;;;9.68;;
41903;SDS011;27586;51.124;4.182;2023-07-22T03:19:54;11.13;;;9.95;;
41903;SDS011;27586;51.124;4.182;2023-07-22T03:22:20;13.35;;;9.93;;
41903;SDS011;27586;51.124;4.182;2023-07-22T03:24:46;14.13;;;10.10;;
41903;SDS011;27586;51.124;4.182;2023-07-22T03:27:12;11.15;;;9.95;;
41903;SDS011;27586;51.124;4.182;2023-07-22T03:29:40;13.27;;;9.77;;
41903;SDS011;27586;51.124;4.182;2023-07-22T03:32:06;12.27;;;10.40;;
41903;SDS011;27586;51.124;4.182;2023-07-22T03:34:32;14.05;;;9.90;;
41903;SDS011;27586;51.124;4.182;2023-07-22T03:36:58;16.38;;;10.93;;
41903;SDS011;27586;51.124;4.182;2023-07-22T03:39:23;13.40;;;10.05;;
41903;SDS011;27586;51.124;4.182;2023-07-22T03:41:49;11.65;;;10.30;;
41903;SDS011;27586;51.124;4.182;2023-07-22T03:44:15;11.75;;;9.90;;
41903;SDS011;27586;51.124;4.182;2023-07-22T03:46:41;13.18;;;9.95;;
41903;SDS011;27586;51.124;4.182;2023-07-22T03:49:06;12.32;;;10.10;;
41903;SDS011;27586;51.124;4.182;2023-07-22T03:51:32;11.43;;;9.93;;
41903;SDS011;27586;51.124;4.182;2023-07-22T03:53:58;12.27;;;9.85;;
41903;SDS011;27586;51.124;4.182;2023-07-22T03:56:24;11.93;;;10.02;;
41903;SDS011;27586;51.124;4.182;2023-07-22T03:58:50;13.25;;;10.40;;
41903;SDS011;27586;51.124;4.182;2023-07-22T04:01:16;15.55;;;10.45;;
41903;SDS011;27586;51.124;4.182;2023-07-22T04:03:42;13.10;;;10.57;;
41903;SDS011;27586;51.124;4.182;2023-07-22T04:06:07;12.35;;;10.43;;
41903;SDS011;27586;51.124;4.182;2023-07-22T04:08:33;12.45;;;10.13;;
41903;SDS011;27586;51.124;4.182;2023-07-22T04:10:59;15.25;;;10.68;;
41903;SDS011;27586;51.124;4.182;2023-07-22T04:13:25;11.15;;;9.90;;
41903;SDS011;27586;51.124;4.182;2023-07-22T04:15:51;13.68;;;10.63;;
41903;SDS011;27586;51.124;4.182;2023-07-22T04:18:18;16.13;;;10.70;;
41903;SDS011;27586;51.124;4.182;2023-07-22T04:20:45;12.82;;;10.77;;
41903;SDS011;27586;51.124;4.182;2023-07-22T04:23:11;12.23;;;10.90;;
41903;SDS011;27586;51.124;4.182;2023-07-22T04:25:43;13.13;;;9.88;;
41903;SDS011;27586;51.124;4.182;2023-07-22T04:28:10;15.20;;;11.43;;
41903;SDS011;27586;51.124;4.182;2023-07-22T04:30:36;13.07;;;10.60;;
41903;SDS011;27586;51.124;4.182;2023-07-22T04:33:03;14.07;;;10.07;;
41903;SDS011;27586;51.124;4.182;2023-07-22T04:35:33;12.18;;;10.15;;
41903;SDS011;27586;51.124;4.182;2023-07-22T04:38:02;13.38;;;10.48;;
41903;SDS011;27586;51.124;4.182;2023-07-22T04:40:28;14.00;;;10.27;;
41903;SDS011;27586;51.124;4.182;2023-07-22T04:42:55;11.68;;;10.48;;
41903;SDS011;27586;51.124;4.182;2023-07-22T04:45:21;12.95;;;10.75;;
41903;SDS011;27586;51.124;4.182;2023-07-22T04:47:49;13.95;;;11.32;;
41903;SDS011;27586;51.124;4.182;2023-07-22T04:50:15;14.32;;;10.55;;
41903;SDS011;27586;51.124;4.182;2023-07-22T04:52:45;13.55;;;10.65;;
41903;SDS011;27586;51.124;4.182;2023-07-22T04:55:12;12.50;;;10.45;;
41903;SDS011;27586;51.124;4.182;2023-07-22T04:57:39;15.23;;;10.40;;
41903;SDS011;27586;51.124;4.182;2023-07-22T05:00:06;14.13;;;10.88;;
41903;SDS011;27586;51.124;4.182;2023-07-22T05:02:41;12.35;;;10.52;;
41903;SDS011;27586;51.124;4.182;2023-07-22T05:05:09;11.80;;;9.80;;
41903;SDS011;27586;51.124;4.182;2023-07-22T05:07:35;13.40;;;9.50;;
41903;SDS011;27586;51.124;4.182;2023-07-22T05:10:00;15.82;;;11.10;;
41903;SDS011;27586;51.124;4.182;2023-07-22T05:12:26;14.27;;;11.30;;
41903;SDS011;27586;51.124;4.182;2023-07-22T05:14:52;14.27;;;10.25;;
41903;SDS011;27586;51.124;4.182;2023-07-22T05:17:17;12.40;;;10.98;;
41903;SDS011;27586;51.124;4.182;2023-07-22T05:19:43;12.43;;;10.25;;
41903;SDS011;27586;51.124;4.182;2023-07-22T05:22:09;14.98;;;10.80;;
41903;SDS011;27586;51.124;4.182;2023-07-22T05:24:34;14.60;;;10.82;;
41903;SDS011;27586;51.124;4.182;2023-07-22T05:27:00;11.90;;;10.20;;
41903;SDS011;27586;51.124;4.182;2023-07-22T05:29:25;13.98;;;10.98;;
41903;SDS011;27586;51.124;4.182;2023-07-22T05:31:51;12.82;;;10.13;;
41903;SDS011;27586;51.124;4.182;2023-07-22T05:34:17;14.32;;;10.90;;
41903;SDS011;27586;51.124;4.182;2023-07-22T05:36:42;12.73;;;10.55;;
41903;SDS011;27586;51.124;4.182;2023-07-22T05:39:08;15.65;;;11.15;;
41903;SDS011;27586;51.124;4.182;2023-07-22T05:41:33;15.65;;;11.60;;
41903;SDS011;27586;51.124;4.182;2023-07-22T05:43:59;13.88;;;10.35;;
41903;SDS011;27586;51.124;4.182;2023-07-22T05:46:25;13.98;;;10.68;;
41903;SDS011;27586;51.124;4.182;2023-07-22T05:48:50;13.73;;;10.50;;
41903;SDS011;27586;51.124;4.182;2023-07-22T05:51:17;14.88;;;10.13;;
41903;SDS011;27586;51.124;4.182;2023-07-22T05:53:43;13.82;;;10.00;;
41903;SDS011;27586;51.124;4.182;2023-07-22T05:56:08;13.80;;;9.88;;
41903;SDS011;27586;51.124;4.182;2023-07-22T05:58:34;12.48;;;10.10;;
41903;SDS011;27586;51.124;4.182;2023-07-22T06:01:00;12.23;;;10.23;;
41903;SDS011;27586;51.124;4.182;2023-07-22T06:03:26;12.82;;;9.77;;
41903;SDS011;27586;51.124;4.182;2023-07-22T06:05:51;16.08;;;9.85;;
41903;SDS011;27586;51.124;4.182;2023-07-22T06:08:17;16.08;;;10.30;;
41903;SDS011;27586;51.124;4.182;2023-07-22T06:10:43;13.98;;;9.30;;
41903;SDS011;27586;51.124;4.182;2023-07-22T06:13:09;12.90;;;9.20;;
41903;SDS011;27586;51.124;4.182;2023-07-22T06:15:35;13.60;;;9.48;;
41903;SDS011;27586;51.124;4.182;2023-07-22T06:18:01;12.13;;;9.70;;
41903;SDS011;27586;51.124;4.182;2023-07-22T06:20:26;14.73;;;9.23;;
41903;SDS011;27586;51.124;4.182;2023-07-22T06:22:53;14.23;;;9.30;;
41903;SDS011;27586;51.124;4.182;2023-07-22T06:25:19;15.70;;;9.57;;
41903;SDS011;27586;51.124;4.182;2023-07-22T06:27:45;12.43;;;9.13;;
41903;SDS011;27586;51.124;4.182;2023-07-22T06:30:10;15.13;;;9.15;;
41903;SDS011;27586;51.124;4.182;2023-07-22T06:32:36;12.65;;;9.50;;
41903;SDS011;27586;51.124;4.182;2023-07-22T06:35:02;11.52;;;8.70;;
41903;SDS011;27586;51.124;4.182;2023-07-22T06:37:29;11.82;;;9.20;;
41903;SDS011;27586;51.124;4.182;2023-07-22T06:39:55;12.45;;;9.15;;
41903;SDS011;27586;51.124;4.182;2023-07-22T06:42:20;14.80;;;9.23;;
41903;SDS011;27586;51.124;4.182;2023-07-22T06:44:46;14.38;;;9.20;;
41903;SDS011;27586;51.124;4.182;2023-07-22T06:47:12;13.55;;;8.40;;
41903;SDS011;27586;51.124;4.182;2023-07-22T06:49:37;13.27;;;9.23;;
41903;SDS011;27586;51.124;4.182;2023-07-22T06:52:03;12.02;;;8.02;;
41903;SDS011;27586;51.124;4.182;2023-07-22T06:54:30;9.77;;;7.88;;
41903;SDS011;27586;51.124;4.182;2023-07-22T06:56:55;13.73;;;8.60;;
41903;SDS011;27586;51.124;4.182;2023-07-22T06:59:21;11.50;;;8.85;;
41903;SDS011;27586;51.124;4.182;2023-07-22T07:01:46;12.77;;;8.38;;
41903;SDS011;27586;51.124;4.182;2023-07-22T07:04:12;13.35;;;8.38;;
41903;SDS011;27586;51.124;4.182;2023-07-22T07:06:38;10.40;;;8.52;;
41903;SDS011;27586;51.124;4.182;2023-07-22T07:09:04;12.50;;;8.45;;
41903;SDS011;27586;51.124;4.182;2023-07-22T07:11:30;12.98;;;8.35;;
41903;SDS011;27586;51.124;4.182;2023-07-22T07:13:56;12.20;;;7.85;;
41903;SDS011;27586;51.124;4.182;2023-07-22T07:16:26;11.13;;;7.55;;
41903;SDS011;27586;51.124;4.182;2023-07-22T07:18:54;12.60;;;7.43;;
41903;SDS011;27586;51.124;4.182;2023-07-22T07:21:20;10.85;;;7.22;;
41903;SDS011;27586;51.124;4.182;2023-07-22T07:23:47;9.85;;;7.28;;
41903;SDS011;27586;51.124;4.182;2023-07-22T07:26:13;12.68;;;7.90;;
41903;SDS011;27586;51.124;4.182;2023-07-22T07:28:39;12.70;;;7.13;;
41903;SDS011;27586;51.124;4.182;2023-07-22T07:31:05;11.98;;;7.00;;
41903;SDS011;27586;51.124;4.182;2023-07-22T07:33:31;8.85;;;6.25;;
41903;SDS011;27586;51.124;4.182;2023-07-22T07:35:57;12.55;;;7.00;;
41903;SDS011;27586;51.124;4.182;2023-07-22T07:38:23;13.20;;;7.18;;
41903;SDS011;27586;51.124;4.182;2023-07-22T07:41:05;10.63;;;6.32;;
41903;SDS011;27586;51.124;4.182;2023-07-22T07:43:36;10.18;;;7.28;;
41903;SDS011;27586;51.124;4.182;2023-07-22T07:49:00;8.90;;;5.95;;
41903;SDS011;27586;51.124;4.182;2023-07-22T07:51:26;10.00;;;6.95;;
41903;SDS011;27586;51.124;4.182;2023-07-22T07:53:53;10.43;;;5.93;;
41903;SDS011;27586;51.124;4.182;2023-07-22T07:56:20;9.90;;;6.63;;
41903;SDS011;27586;51.124;4.182;2023-07-22T07:58:47;9.27;;;5.97;;
41903;SDS011;27586;51.124;4.182;2023-07-22T08:01:14;10.48;;;5.95;;
41903;SDS011;27586;51.124;4.182;2023-07-22T08:03:41;13.18;;;6.38;;
41903;SDS011;27586;51.124;4.182;2023-07-22T08:06:08;9.95;;;5.80;;
41903;SDS011;27586;51.124;4.182;2023-07-22T08:08:34;11.10;;;6.38;;
41903;SDS011;27586;51.124;4.182;2023-07-22T08:11:05;10.02;;;5.40;;
41903;SDS011;27586;51.124;4.182;2023-07-22T08:13:35;11.23;;;6.35;;
41903;SDS011;27586;51.124;4.182;2023-07-22T08:16:02;10.65;;;5.30;;
41903;SDS011;27586;51.124;4.182;2023-07-22T08:18:29;9.45;;;5.97;;
41903;SDS011;27586;51.124;4.182;2023-07-22T08:20:55;7.05;;;5.40;;
41903;SDS011;27586;51.124;4.182;2023-07-22T08:23:21;8.98;;;5.05;;
41903;SDS011;27586;51.124;4.182;2023-07-22T08:25:47;6.68;;;4.95;;
41903;SDS011;27586;51.124;4.182;2023-07-22T08:28:14;10.20;;;5.15;;
41903;SDS011;27586;51.124;4.182;2023-07-22T08:30:40;10.25;;;5.30;;
41903;SDS011;27586;51.124;4.182;2023-07-22T08:33:11;7.97;;;5.90;;
41903;SDS011;27586;51.124;4.182;2023-07-22T08:35:37;7.50;;;5.30;;
41903;SDS011;27586;51.124;4.182;2023-07-22T08:38:04;9.52;;;5.15;;
41903;SDS011;27586;51.124;4.182;2023-07-22T08:40:37;9.07;;;5.10;;
41903;SDS011;27586;51.124;4.182;2023-07-22T08:43:04;8.85;;;5.38;;
41903;SDS011;27586;51.124;4.182;2023-07-22T08:45:32;9.98;;;5.97;;
41903;SDS011;27586;51.124;4.182;2023-07-22T08:48:01;10.68;;;6.00;;
41903;SDS011;27586;51.124;4.182;2023-07-22T08:50:33;8.57;;;4.65;;
41903;SDS011;27586;51.124;4.182;2023-07-22T08:53:01;8.00;;;4.60;;
41903;SDS011;27586;51.124;4.182;2023-07-22T08:55:28;8.13;;;4.80;;
41903;SDS011;27586;51.124;4.182;2023-07-22T08:57:54;8.60;;;4.88;;
41903;SDS011;27586;51.124;4.182;2023-07-22T09:00:20;7.55;;;4.93;;
41903;SDS011;27586;51.124;4.182;2023-07-22T09:02:46;8.98;;;4.90;;
41903;SDS011;27586;51.124;4.182;2023-07-22T09:05:12;10.10;;;4.50;;
41903;SDS011;27586;51.124;4.182;2023-07-22T09:07:38;6.20;;;4.32;;
41903;SDS011;27586;51.124;4.182;2023-07-22T09:10:05;7.45;;;4.05;;
41903;SDS011;27586;51.124;4.182;2023-07-22T09:12:33;8.30;;;4.40;;
41903;SDS011;27586;51.124;4.182;2023-07-22T09:15:06;7.90;;;4.50;;
41903;SDS011;27586;51.124;4.182;2023-07-22T09:17:40;5.60;;;4.05;;
41903;SDS011;27586;51.124;4.182;2023-07-22T09:20:06;8.52;;;3.90;;
41903;SDS011;27586;51.124;4.182;2023-07-22T09:22:33;7.05;;;3.95;;
41903;SDS011;27586;51.124;4.182;2023-07-22T09:25:18;5.97;;;3.95;;
41903;SDS011;27586;51.124;4.182;2023-07-22T09:27:55;6.50;;;3.65;;
41903;SDS011;27586;51.124;4.182;2023-07-22T09:30:27;8.70;;;3.50;;
41903;SDS011;27586;51.124;4.182;2023-07-22T09:32:55;6.93;;;3.60;;
41903;SDS011;27586;51.124;4.182;2023-07-22T09:35:22;4.55;;;3.40;;
41903;SDS011;27586;51.124;4.182;2023-07-22T09:37:49;5.97;;;3.60;;
41903;SDS011;27586;51.124;4.182;2023-07-22T09:40:16;5.38;;;3.25;;
41903;SDS011;27586;51.124;4.182;2023-07-22T09:42:47;4.55;;;3.30;;
41903;SDS011;27586;51.124;4.182;2023-07-22T09:45:14;6.97;;;3.20;;
41903;SDS011;27586;51.124;4.182;2023-07-22T09:47:41;4.20;;;2.60;;
41903;SDS011;27586;51.124;4.182;2023-07-22T09:50:15;7.53;;;2.40;;
41903;SDS011;27586;51.124;4.182;2023-07-22T09:52:47;7.50;;;2.70;;
41903;SDS011;27586;51.124;4.182;2023-07-22T09:55:26;4.13;;;2.10;;
41903;SDS011;27586;51.124;4.182;2023-07-22T09:57:54;1.98;;;1.45;;
41903;SDS011;27586;51.124;4.182;2023-07-22T10:00:20;2.28;;;1.73;;
41903;SDS011;27586;51.124;4.182;2023-07-22T10:02:48;2.05;;;1.65;;
41903;SDS011;27586;51.124;4.182;2023-07-22T10:05:18;2.50;;;1.50;;
41903;SDS011;27586;51.124;4.182;2023-07-22T10:07:46;2.55;;;1.50;;
41903;SDS011;27586;51.124;4.182;2023-07-22T10:10:17;2.60;;;1.60;;
41903;SDS011;27586;51.124;4.182;2023-07-22T10:12:47;2.03;;;1.33;;
41903;SDS011;27586;51.124;4.182;2023-07-22T10:15:14;1.92;;;1.60;;
41903;SDS011;27586;51.124;4.182;2023-07-22T10:17:41;2.95;;;1.55;;
41903;SDS011;27586;51.124;4.182;2023-07-22T10:20:09;3.72;;;2.13;;
41903;SDS011;27586;51.124;4.182;2023-07-22T10:22:40;3.83;;;2.38;;
41903;SDS011;27586;51.124;4.182;2023-07-22T10:25:17;2.88;;;1.80;;
41903;SDS011;27586;51.124;4.182;2023-07-22T10:27:43;7.28;;;2.00;;
41903;SDS011;27586;51.124;4.182;2023-07-22T10:30:10;1.80;;;1.52;;
41903;SDS011;27586;51.124;4.182;2023-07-22T10:32:40;4.53;;;2.20;;
41903;SDS011;27586;51.124;4.182;2023-07-22T10:35:08;4.45;;;1.98;;
41903;SDS011;27586;51.124;4.182;2023-07-22T10:37:38;3.22;;;1.90;;
41903;SDS011;27586;51.124;4.182;2023-07-22T10:40:19;3.25;;;1.73;;
41903;SDS011;27586;51.124;4.182;2023-07-22T10:42:58;3.33;;;1.85;;
41903;SDS011;27586;51.124;4.182;2023-07-22T10:45:31;2.95;;;1.70;;
41903;SDS011;27586;51.124;4.182;2023-07-22T10:53:14;2.67;;;1.63;;
41903;SDS011;27586;51.124;4.182;2023-07-22T10:56:03;2.80;;;1.48;;
41903;SDS011;27586;51.124;4.182;2023-07-22T10:59:17;4.10;;;1.65;;
41903;SDS011;27586;51.124;4.182;2023-07-22T11:15:01;2.03;;;1.67;;
41903;SDS011;27586;51.124;4.182;2023-07-22T11:17:28;2.08;;;1.50;;
41903;SDS011;27586;51.124;4.182;2023-07-22T11:19:55;2.88;;;1.40;;
41903;SDS011;27586;51.124;4.182;2023-07-22T11:22:22;2.83;;;1.50;;
41903;SDS011;27586;51.124;4.182;2023-07-22T11:24:47;2.10;;;1.58;;
41903;SDS011;27586;51.124;4.182;2023-07-22T11:27:13;1.40;;;1.30;;
41903;SDS011;27586;51.124;4.182;2023-07-22T11:29:39;2.60;;;1.60;;
41903;SDS011;27586;51.124;4.182;2023-07-22T11:32:05;1.55;;;1.45;;
41903;SDS011;27586;51.124;4.182;2023-07-22T11:34:32;2.85;;;1.70;;
41903;SDS011;27586;51.124;4.182;2023-07-22T11:36:58;2.30;;;1.48;;
41903;SDS011;27586;51.124;4.182;2023-07-22T11:39:24;3.60;;;1.45;;
41903;SDS011;27586;51.124;4.182;2023-07-22T11:41:52;3.28;;;1.20;;
41903;SDS011;27586;51.124;4.182;2023-07-22T11:44:19;2.17;;;1.40;;
41903;SDS011;27586;51.124;4.182;2023-07-22T11:49:28;2.28;;;1.40;;
41903;SDS011;27586;51.124;4.182;2023-07-22T11:54:25;3.30;;;1.58;;
41903;SDS011;27586;51.124;4.182;2023-07-22T11:56:52;3.67;;;1.58;;
41903;SDS011;27586;51.124;4.182;2023-07-22T11:59:31;2.28;;;1.67;;
41903;SDS011;27586;51.124;4.182;2023-07-22T12:02:03;7.55;;;1.60;;
41903;SDS011;27586;51.124;4.182;2023-07-22T12:04:33;1.83;;;1.42;;
41903;SDS011;27586;51.124;4.182;2023-07-22T12:07:01;2.95;;;1.50;;
41903;SDS011;27586;51.124;4.182;2023-07-22T12:09:29;1.77;;;1.48;;
41903;SDS011;27586;51.124;4.182;2023-07-22T12:11:56;2.90;;;1.50;;
41903;SDS011;27586;51.124;4.182;2023-07-22T12:14:23;2.97;;;1.23;;
41903;SDS011;27586;51.124;4.182;2023-07-22T12:16:52;4.10;;;1.50;;
41903;SDS011;27586;51.124;4.182;2023-07-22T12:19:22;1.80;;;1.27;;
41903;SDS011;27586;51.124;4.182;2023-07-22T12:21:47;2.85;;;1.60;;
41903;SDS011;27586;51.124;4.182;2023-07-22T12:24:14;2.92;;;1.52;;
41903;SDS011;27586;51.124;4.182;2023-07-22T12:26:40;2.65;;;1.48;;
41903;SDS011;27586;51.124;4.182;2023-07-22T12:29:07;1.85;;;1.40;;
41903;SDS011;27586;51.124;4.182;2023-07-22T12:31:33;4.40;;;1.60;;
41903;SDS011;27586;51.124;4.182;2023-07-22T12:33:59;3.72;;;1.80;;
41903;SDS011;27586;51.124;4.182;2023-07-22T12:36:24;3.22;;;1.70;;
41903;SDS011;27586;51.124;4.182;2023-07-22T12:38:50;2.47;;;1.70;;
41903;SDS011;27586;51.124;4.182;2023-07-22T12:41:16;1.60;;;1.50;;
41903;SDS011;27586;51.124;4.182;2023-07-22T12:43:42;6.68;;;1.77;;
41903;SDS011;27586;51.124;4.182;2023-07-22T12:46:08;2.78;;;1.98;;
41903;SDS011;27586;51.124;4.182;2023-07-22T12:48:33;2.33;;;1.60;;
41903;SDS011;27586;51.124;4.182;2023-07-22T12:50:59;3.35;;;1.60;;
41903;SDS011;27586;51.124;4.182;2023-07-22T12:53:25;4.32;;;2.00;;
41903;SDS011;27586;51.124;4.182;2023-07-22T12:55:51;3.17;;;1.60;;
41903;SDS011;27586;51.124;4.182;2023-07-22T12:58:17;2.60;;;1.60;;
41903;SDS011;27586;51.124;4.182;2023-07-22T13:00:43;2.50;;;1.67;;
41903;SDS011;27586;51.124;4.182;2023-07-22T13:03:08;3.65;;;1.60;;
41903;SDS011;27586;51.124;4.182;2023-07-22T13:05:34;3.58;;;1.70;;
41903;SDS011;27586;51.124;4.182;2023-07-22T13:07:59;4.00;;;1.50;;
41903;SDS011;27586;51.124;4.182;2023-07-22T13:10:26;2.88;;;1.70;;
41903;SDS011;27586;51.124;4.182;2023-07-22T13:12:55;4.07;;;1.67;;
41903;SDS011;27586;51.124;4.182;2023-07-22T13:15:21;4.60;;;1.83;;
41903;SDS011;27586;51.124;4.182;2023-07-22T13:17:46;2.10;;;1.45;;
41903;SDS011;27586;51.124;4.182;2023-07-22T13:20:12;3.03;;;1.80;;
41903;SDS011;27586;51.124;4.182;2023-07-22T13:22:38;4.00;;;1.85;;
41903;SDS011;27586;51.124;4.182;2023-07-22T13:25:04;3.92;;;1.50;;
41903;SDS011;27586;51.124;4.182;2023-07-22T13:27:30;3.45;;;1.60;;
41903;SDS011;27586;51.124;4.182;2023-07-22T13:29:56;1.75;;;1.60;;
41903;SDS011;27586;51.124;4.182;2023-07-22T13:32:22;3.47;;;1.67;;
41903;SDS011;27586;51.124;4.182;2023-07-22T13:34:48;2.72;;;1.65;;
41903;SDS011;27586;51.124;4.182;2023-07-22T13:37:14;3.00;;;1.50;;
41903;SDS011;27586;51.124;4.182;2023-07-22T13:39:39;1.98;;;1.73;;
41903;SDS011;27586;51.124;4.182;2023-07-22T13:42:05;6.13;;;1.58;;
41903;SDS011;27586;51.124;4.182;2023-07-22T13:44:31;4.72;;;1.60;;
41903;SDS011;27586;51.124;4.182;2023-07-22T13:46:56;5.30;;;1.85;;
41903;SDS011;27586;51.124;4.182;2023-07-22T13:49:22;4.22;;;1.88;;
41903;SDS011;27586;51.124;4.182;2023-07-22T13:51:47;2.53;;;1.63;;
41903;SDS011;27586;51.124;4.182;2023-07-22T13:54:13;3.08;;;1.52;;
41903;SDS011;27586;51.124;4.182;2023-07-22T13:56:39;2.50;;;1.50;;
41903;SDS011;27586;51.124;4.182;2023-07-22T13:59:05;1.83;;;1.50;;
41903;SDS011;27586;51.124;4.182;2023-07-22T14:01:31;3.63;;;1.92;;
41903;SDS011;27586;51.124;4.182;2023-07-22T14:03:57;2.60;;;1.65;;
41903;SDS011;27586;51.124;4.182;2023-07-22T14:06:22;3.35;;;1.70;;
41903;SDS011;27586;51.124;4.182;2023-07-22T14:08:48;3.30;;;1.58;;
41903;SDS011;27586;51.124;4.182;2023-07-22T14:11:14;5.38;;;1.88;;
41903;SDS011;27586;51.124;4.182;2023-07-22T14:13:39;3.58;;;1.80;;
41903;SDS011;27586;51.124;4.182;2023-07-22T14:16:05;2.53;;;1.50;;
41903;SDS011;27586;51.124;4.182;2023-07-22T14:18:30;4.43;;;1.70;;
41903;SDS011;27586;51.124;4.182;2023-07-22T14:20:56;2.85;;;1.70;;
41903;SDS011;27586;51.124;4.182;2023-07-22T14:23:22;4.13;;;1.55;;
41903;SDS011;27586;51.124;4.182;2023-07-22T14:25:47;2.97;;;1.77;;
41903;SDS011;27586;51.124;4.182;2023-07-22T14:28:13;2.10;;;1.60;;
41903;SDS011;27586;51.124;4.182;2023-07-22T14:30:39;6.82;;;2.13;;
41903;SDS011;27586;51.124;4.182;2023-07-22T14:33:04;4.60;;;1.63;;
41903;SDS011;27586;51.124;4.182;2023-07-22T14:35:30;3.67;;;1.90;;
41903;SDS011;27586;51.124;4.182;2023-07-22T14:37:57;4.03;;;1.70;;
41903;SDS011;27586;51.124;4.182;2023-07-22T14:40:24;3.90;;;1.70;;
41903;SDS011;27586;51.124;4.182;2023-07-22T14:42:50;3.65;;;1.85;;
41903;SDS011;27586;51.124;4.182;2023-07-22T14:45:16;2.70;;;1.60;;
41903;SDS011;27586;51.124;4.182;2023-07-22T14:47:41;4.20;;;1.60;;
41903;SDS011;27586;51.124;4.182;2023-07-22T14:50:07;3.60;;;1.42;;
41903;SDS011;27586;51.124;4.182;2023-07-22T14:52:33;3.53;;;1.42;;
41903;SDS011;27586;51.124;4.182;2023-07-22T14:54:59;4.28;;;1.75;;
41903;SDS011;27586;51.124;4.182;2023-07-22T14:57:25;3.78;;;1.52;;
41903;SDS011;27586;51.124;4.182;2023-07-22T14:59:55;2.25;;;1.40;;
41903;SDS011;27586;51.124;4.182;2023-07-22T15:02:22;3.63;;;1.65;;
41903;SDS011;27586;51.124;4.182;2023-07-22T15:04:48;2.67;;;1.55;;